createdAt,value
2018-04-14T00:01:33.424Z,48.70
2018-04-14T00:04:00.963Z,48.70
2018-04-14T00:06:28.545Z,48.60
2018-04-14T00:08:56.080Z,48.80
2018-04-14T00:11:23.619Z,48.70
2018-04-14T00:13:51.190Z,48.60
2018-04-14T00:16:18.729Z,48.80
2018-04-14T00:18:47.063Z,48.70
2018-04-14T00:21:14.596Z,48.70
2018-04-14T00:23:42.167Z,48.80
2018-04-14T00:26:09.706Z,48.80
2018-04-14T00:28:37.297Z,48.80
2018-04-14T00:31:04.834Z,49.10
2018-04-14T00:33:32.400Z,49.00
2018-04-14T00:35:59.975Z,49.10
2018-04-14T00:38:27.563Z,49.00
2018-04-14T00:40:56.620Z,49.10
2018-04-14T00:43:24.168Z,49.10
2018-04-14T00:45:51.839Z,49.10
2018-04-14T00:48:19.375Z,49.10
2018-04-14T00:50:46.913Z,49.20
2018-04-14T00:56:20.131Z,49.30
2018-04-14T00:58:48.430Z,49.50
2018-04-14T01:01:15.970Z,49.50
2018-04-14T01:03:44.315Z,49.50
2018-04-14T01:06:11.854Z,49.50
2018-04-14T01:08:39.434Z,49.40
2018-04-14T01:11:07.018Z,49.50
2018-04-14T01:13:35.331Z,49.50
2018-04-14T01:16:02.909Z,49.40
2018-04-14T01:18:30.454Z,49.50
2018-04-14T01:20:57.997Z,49.60
2018-04-14T01:23:26.338Z,49.80
2018-04-14T01:25:53.909Z,49.80
2018-04-14T01:28:21.454Z,49.80
2018-04-14T01:30:49.055Z,49.70
2018-04-14T01:33:17.366Z,49.90
2018-04-14T01:35:44.913Z,49.90
2018-04-14T01:38:12.491Z,50.00
2018-04-14T01:40:40.029Z,49.90
2018-04-14T01:43:07.622Z,50.00
2018-04-14T01:45:35.207Z,50.10
2018-04-14T01:48:02.731Z,50.10
2018-04-14T01:50:30.324Z,50.20
2018-04-14T01:52:57.863Z,50.30
2018-04-14T01:55:25.401Z,50.30
2018-04-14T01:57:52.982Z,50.50
2018-04-14T02:00:20.518Z,50.60
2018-04-14T02:02:48.103Z,50.70
2018-04-14T02:05:15.643Z,50.70
2018-04-14T02:07:43.239Z,50.70
2018-04-14T02:10:10.782Z,50.80
2018-04-14T02:12:38.319Z,50.80
2018-04-14T02:15:05.899Z,50.90
2018-04-14T02:17:33.438Z,50.80
2018-04-14T02:20:01.020Z,50.90
2018-04-14T02:22:28.595Z,50.90
2018-04-14T02:24:56.151Z,50.90
2018-04-14T02:27:23.699Z,50.90
2018-04-14T02:29:51.280Z,50.90
2018-04-14T02:32:18.827Z,51.00
2018-04-14T02:34:46.403Z,51.10
2018-04-14T02:37:13.977Z,51.00
2018-04-14T02:39:42.297Z,51.10
2018-04-14T02:42:09.879Z,51.10
2018-04-14T02:44:37.422Z,51.20
2018-04-14T02:47:04.963Z,51.20
2018-04-14T02:49:32.557Z,51.20
2018-04-14T02:52:00.090Z,51.20
2018-04-14T02:54:27.626Z,51.20
2018-04-14T02:56:55.972Z,51.10
2018-04-14T02:59:23.516Z,51.10
2018-04-14T03:01:51.099Z,51.20
2018-04-14T03:04:18.667Z,51.20
2018-04-14T03:06:47.752Z,51.30
2018-04-14T03:09:15.294Z,51.30
2018-04-14T03:11:42.868Z,51.30
2018-04-14T03:14:10.446Z,51.40
2018-04-14T03:16:37.991Z,51.30
2018-04-14T03:19:05.576Z,51.50
2018-04-14T03:21:33.883Z,51.50
2018-04-14T03:24:01.558Z,51.40
2018-04-14T03:26:29.131Z,51.50
2018-04-14T03:28:56.903Z,51.50
2018-04-14T03:31:24.448Z,51.40
2018-04-14T03:33:51.991Z,51.50
2018-04-14T03:36:19.561Z,51.50
2018-04-14T03:38:47.102Z,51.60
2018-04-14T03:41:14.676Z,51.50
2018-04-14T03:43:42.217Z,51.60
2018-04-14T03:46:09.783Z,51.60
2018-04-14T03:48:37.350Z,51.70
2018-04-14T03:51:04.921Z,51.80
2018-04-14T03:53:32.455Z,51.70
2018-04-14T03:56:00.025Z,51.80
2018-04-14T03:58:27.556Z,51.80
2018-04-14T04:00:55.903Z,52.10
2018-04-14T04:03:23.455Z,52.10
2018-04-14T04:05:51.031Z,52.00
2018-04-14T04:08:18.608Z,52.10
2018-04-14T04:10:46.918Z,52.20
2018-04-14T04:13:14.462Z,52.10
2018-04-14T04:15:42.831Z,52.20
2018-04-14T04:18:11.155Z,52.20
2018-04-14T04:20:57.598Z,52.20
2018-04-14T04:23:37.058Z,52.20
2018-04-14T04:26:05.405Z,52.30
2018-04-14T04:28:33.036Z,52.90
2018-04-14T04:31:00.615Z,52.20
2018-04-14T04:33:28.159Z,52.20
2018-04-14T04:35:55.738Z,52.30
2018-04-14T04:38:23.325Z,52.30
2018-04-14T04:40:51.634Z,51.90
2018-04-14T04:43:19.171Z,52.30
2018-04-14T04:45:47.518Z,52.30
2018-04-14T04:48:15.058Z,52.20
2018-04-14T04:50:42.597Z,52.20
2018-04-14T04:53:10.176Z,52.30
2018-04-14T04:55:37.716Z,52.40
2018-04-14T04:58:05.295Z,52.40
2018-04-14T05:00:32.901Z,52.40
2018-04-14T05:03:01.248Z,52.20
2018-04-14T05:05:28.795Z,52.40
2018-04-14T05:07:56.369Z,52.40
2018-04-14T05:10:23.931Z,52.50
2018-04-14T05:12:51.482Z,52.50
2018-04-14T05:15:19.055Z,52.50
2018-04-14T05:17:46.598Z,52.60
2018-04-14T05:20:14.166Z,52.60
2018-04-14T05:22:41.714Z,52.70
2018-04-14T05:25:09.286Z,52.80
2018-04-14T05:27:36.866Z,52.90
2018-04-14T05:30:04.408Z,53.00
2018-04-14T05:32:31.996Z,53.10
2018-04-14T05:34:59.538Z,53.20
2018-04-14T05:37:27.098Z,53.90
2018-04-14T05:39:55.464Z,53.40
2018-04-14T05:42:23.016Z,53.40
2018-04-14T05:44:50.600Z,53.50
2018-04-14T05:47:18.142Z,53.60
2018-04-14T05:49:45.722Z,53.60
2018-04-14T05:52:13.304Z,53.70
2018-04-14T05:54:41.664Z,53.90
2018-04-14T05:57:09.246Z,53.80
2018-04-14T05:59:37.565Z,54.00
2018-04-14T06:02:05.125Z,54.00
2018-04-14T06:04:32.719Z,54.00
2018-04-14T06:07:00.314Z,54.10
2018-04-14T06:09:28.615Z,54.30
2018-04-14T06:11:56.151Z,54.30
2018-04-14T06:14:24.499Z,54.60
2018-04-14T06:16:52.047Z,54.50
2018-04-14T06:19:19.633Z,54.80
2018-04-14T06:21:47.970Z,55.00
2018-04-14T06:24:15.538Z,54.90
2018-04-14T06:26:43.118Z,55.20
2018-04-14T06:29:10.660Z,55.30
2018-04-14T06:31:38.235Z,55.30
2018-04-14T06:34:05.781Z,55.60
2018-04-14T06:36:33.319Z,55.80
2018-04-14T06:39:00.908Z,55.90
2018-04-14T06:41:28.439Z,56.00
2018-04-14T06:43:56.021Z,56.00
2018-04-14T06:46:23.603Z,56.00
2018-04-14T06:48:51.123Z,56.00
2018-04-14T06:51:18.659Z,56.00
2018-04-14T06:53:46.228Z,56.10
2018-04-14T06:56:13.992Z,56.10
2018-04-14T06:58:41.530Z,56.20
2018-04-14T07:01:09.866Z,56.30
2018-04-14T07:03:37.398Z,56.30
2018-04-14T07:06:04.972Z,56.30
2018-04-14T07:08:32.507Z,56.30
2018-04-14T07:11:00.102Z,56.50
2018-04-14T07:13:27.641Z,56.40
2018-04-14T07:15:55.197Z,56.40
2018-04-14T07:18:22.769Z,56.40
2018-04-14T07:20:50.523Z,56.40
2018-04-14T07:23:18.111Z,56.40
2018-04-14T07:25:45.637Z,56.40
2018-04-14T07:28:13.217Z,56.30
2018-04-14T07:30:40.787Z,56.40
2018-04-14T07:33:08.363Z,56.30
2018-04-14T07:35:35.893Z,56.20
2018-04-14T07:38:03.455Z,56.40
2018-04-14T07:40:30.992Z,56.10
2018-04-14T07:42:58.555Z,56.30
2018-04-14T07:45:26.092Z,56.20
2018-04-14T07:47:54.434Z,56.70
2018-04-14T07:50:21.963Z,56.10
2018-04-14T07:52:49.531Z,55.90
2018-04-14T07:55:17.067Z,55.90
2018-04-14T07:57:44.662Z,55.80
2018-04-14T08:00:12.252Z,55.50
2018-04-14T08:02:39.818Z,55.40
2018-04-14T08:05:08.126Z,55.60
2018-04-14T08:07:35.697Z,55.40
2018-04-14T08:10:03.235Z,55.50
2018-04-14T08:12:31.563Z,55.30
2018-04-14T08:14:59.102Z,55.30
2018-04-14T08:17:26.710Z,55.50
2018-04-14T08:19:54.278Z,55.40
2018-04-14T08:22:22.574Z,55.60
2018-04-14T08:24:50.150Z,55.50
2018-04-14T08:27:17.718Z,55.50
2018-04-14T08:29:45.295Z,55.40
2018-04-14T08:32:12.823Z,55.40
2018-04-14T08:34:40.397Z,55.30
2018-04-14T08:37:07.938Z,55.90
2018-04-14T08:39:35.511Z,57.00
2018-04-14T08:42:03.102Z,56.70
2018-04-14T08:44:30.684Z,56.60
2018-04-14T08:46:58.223Z,56.40
2018-04-14T08:49:25.800Z,56.30
2018-04-14T08:51:54.099Z,56.20
2018-04-14T08:54:22.430Z,55.80
2018-04-14T08:56:49.958Z,55.70
2018-04-14T08:59:17.533Z,55.70
2018-04-14T09:01:45.075Z,55.70
2018-04-14T09:04:12.648Z,55.50
2018-04-14T09:06:40.178Z,55.20
2018-04-14T09:09:08.573Z,54.90
2018-04-14T09:11:36.845Z,54.80
2018-04-14T09:14:04.388Z,54.70
2018-04-14T09:16:32.728Z,54.50
2018-04-14T09:19:00.265Z,54.50
2018-04-14T09:21:27.816Z,54.40
2018-04-14T09:23:55.386Z,54.20
2018-04-14T09:26:22.961Z,54.00
2018-04-14T09:28:50.534Z,53.70
2018-04-14T09:31:18.103Z,53.70
2018-04-14T09:33:47.147Z,53.30
2018-04-14T09:36:14.712Z,53.30
2018-04-14T09:38:42.253Z,53.10
2018-04-14T09:41:10.599Z,52.70
2018-04-14T09:43:38.906Z,52.30
2018-04-14T09:46:07.320Z,52.20
2018-04-14T09:48:34.863Z,52.10
2018-04-14T09:51:02.451Z,51.90
2018-04-14T09:53:29.983Z,51.70
2018-04-14T09:55:57.550Z,51.70
2018-04-14T09:58:25.116Z,51.40
2018-04-14T10:00:58.392Z,51.10
2018-04-14T10:03:25.930Z,51.00
2018-04-14T10:05:54.275Z,50.30
2018-04-14T10:08:21.820Z,50.30
2018-04-14T10:10:49.383Z,50.10
2018-04-14T10:13:16.920Z,49.80
2018-04-14T10:15:44.494Z,49.30
2018-04-14T10:18:12.030Z,49.10
2018-04-14T10:20:39.599Z,49.00
2018-04-14T10:23:07.134Z,48.50
2018-04-14T10:25:35.484Z,48.40
2018-04-14T10:28:03.023Z,47.80
2018-04-14T10:30:30.566Z,47.40
2018-04-14T10:32:58.131Z,47.20
2018-04-14T10:35:25.675Z,46.80
2018-04-14T10:37:53.283Z,46.70
2018-04-14T10:40:20.809Z,46.60
2018-04-14T10:42:48.379Z,46.40
2018-04-14T10:45:15.917Z,45.70
2018-04-14T10:47:43.500Z,45.90
2018-04-14T10:50:11.090Z,45.40
2018-04-14T10:52:38.588Z,45.20
2018-04-14T10:55:06.153Z,45.10
2018-04-14T10:57:33.724Z,44.50
2018-04-14T11:00:01.290Z,43.80
2018-04-14T11:02:28.823Z,43.20
2018-04-14T11:04:57.155Z,43.60
2018-04-14T11:07:24.718Z,43.50
2018-04-14T11:09:52.249Z,43.50
2018-04-14T11:12:19.831Z,42.50
2018-04-14T11:14:47.370Z,42.80
2018-04-14T11:17:14.914Z,42.80
2018-04-14T11:19:42.481Z,42.60
2018-04-14T11:22:10.015Z,42.70
2018-04-14T11:24:38.350Z,42.60
2018-04-14T11:27:05.888Z,42.60
2018-04-14T11:29:33.461Z,42.50
2018-04-14T11:32:01.109Z,42.10
2018-04-14T11:34:28.678Z,41.90
2018-04-14T11:36:56.272Z,41.20
2018-04-14T11:39:23.802Z,41.20
2018-04-14T11:41:51.478Z,40.80
2018-04-14T11:44:19.043Z,40.70
2018-04-14T11:46:46.583Z,40.90
2018-04-14T11:49:14.152Z,40.70
2018-04-14T11:51:41.694Z,40.10
2018-04-14T11:54:09.263Z,40.00
2018-04-14T11:56:36.804Z,39.10
2018-04-14T11:59:04.370Z,39.60
2018-04-14T12:01:31.911Z,39.30
2018-04-14T12:03:59.489Z,39.40
2018-04-14T12:06:27.055Z,39.50
2018-04-14T12:08:54.917Z,38.30
2018-04-14T12:11:22.462Z,38.30
2018-04-14T12:13:50.056Z,39.00
2018-04-14T12:16:17.595Z,38.90
2018-04-14T12:18:45.188Z,37.90
2018-04-14T12:21:12.720Z,37.80
2018-04-14T12:23:40.247Z,38.20
2018-04-14T12:26:08.582Z,39.10
2018-04-14T12:28:36.122Z,39.00
2018-04-14T12:31:03.678Z,39.00
2018-04-14T12:33:31.218Z,38.40
2018-04-14T12:35:58.795Z,39.20
2018-04-14T12:38:26.326Z,39.20
2018-04-14T12:40:54.734Z,38.70
2018-04-14T12:43:22.265Z,38.70
2018-04-14T12:45:50.562Z,39.00
2018-04-14T12:48:18.140Z,39.00
2018-04-14T12:50:45.674Z,39.50
2018-04-14T12:53:13.245Z,39.20
2018-04-14T12:55:40.819Z,39.10
2018-04-14T12:58:08.371Z,39.20
2018-04-14T13:00:35.903Z,39.40
2018-04-14T13:03:03.479Z,39.40
2018-04-14T13:05:31.010Z,39.40
2018-04-14T13:07:59.347Z,39.90
2018-04-14T13:10:26.904Z,39.90
2018-04-14T13:12:54.472Z,40.10
2018-04-14T13:15:22.009Z,40.10
2018-04-14T13:17:49.591Z,40.10
2018-04-14T13:20:17.124Z,40.50
2018-04-14T13:22:44.660Z,40.60
2018-04-14T13:25:12.987Z,40.80
2018-04-14T13:27:40.558Z,40.80
2018-04-14T13:30:08.127Z,40.70
2018-04-14T13:32:35.668Z,41.20
2018-04-14T13:35:03.240Z,41.60
2018-04-14T13:37:30.787Z,41.50
2018-04-14T13:39:58.367Z,41.30
2018-04-14T13:42:25.902Z,41.30
2018-04-14T13:44:53.479Z,42.10
2018-04-14T13:47:21.007Z,42.30
2018-04-14T13:49:48.567Z,42.90
2018-04-14T13:52:16.098Z,43.40
2018-04-14T13:54:44.435Z,43.40
2018-04-14T13:57:12.006Z,43.40
2018-04-14T13:59:41.042Z,43.60
2018-04-14T14:02:08.621Z,43.60
2018-04-14T14:04:36.151Z,43.70
2018-04-14T14:07:04.482Z,44.10
2018-04-14T14:09:32.051Z,44.00
2018-04-14T14:11:59.579Z,44.20
2018-04-14T14:14:27.141Z,44.30
2018-04-14T14:16:54.710Z,44.50
2018-04-14T14:19:22.275Z,44.80
2018-04-14T14:21:49.803Z,44.60
2018-04-14T14:24:17.368Z,44.50
2018-04-14T14:26:44.901Z,43.80
2018-04-14T14:29:13.236Z,44.00
2018-04-14T14:31:40.782Z,43.90
2018-04-14T14:34:08.351Z,44.00
2018-04-14T14:36:35.921Z,43.80
2018-04-14T14:39:03.460Z,44.20
2018-04-14T14:41:31.037Z,43.90
2018-04-14T14:43:58.612Z,43.80
2018-04-14T14:46:26.171Z,43.80
2018-04-14T14:48:53.702Z,43.70
2018-04-14T14:51:21.267Z,43.20
2018-04-14T14:53:48.837Z,43.60
2018-04-14T14:56:16.378Z,43.50
2018-04-14T14:58:43.906Z,43.40
2018-04-14T15:01:12.232Z,43.50
2018-04-14T15:03:39.768Z,43.40
2018-04-14T15:06:07.349Z,44.00
2018-04-14T15:08:34.899Z,44.00
2018-04-14T15:11:02.475Z,43.60
2018-04-14T15:13:30.018Z,43.70
2018-04-14T15:15:57.589Z,42.40
2018-04-14T15:18:25.119Z,42.70
2018-04-14T15:20:52.699Z,43.00
2018-04-14T15:23:20.263Z,43.20
2018-04-14T15:25:47.829Z,43.10
2018-04-14T15:28:15.359Z,43.20
2018-04-14T15:30:42.931Z,43.00
2018-04-14T15:33:10.460Z,43.50
2018-04-14T15:35:38.798Z,43.90
2018-04-14T15:38:06.335Z,43.90
2018-04-14T15:40:33.902Z,43.80
2018-04-14T15:43:01.471Z,44.10
2018-04-14T15:45:29.022Z,43.70
2018-04-14T15:47:56.608Z,43.90
2018-04-14T15:50:24.168Z,44.00
2018-04-14T15:52:51.744Z,43.90
2018-04-14T15:55:20.048Z,45.20
2018-04-14T15:57:47.634Z,44.40
2018-04-14T16:00:15.179Z,44.50
2018-04-14T16:02:42.729Z,44.40
2018-04-14T16:05:10.297Z,44.60
2018-04-14T16:07:37.831Z,44.30
2018-04-14T16:10:06.183Z,44.20
2018-04-14T16:12:33.718Z,44.10
2018-04-14T16:15:01.253Z,44.10
2018-04-14T16:17:28.822Z,43.70
2018-04-14T16:19:56.394Z,44.10
2018-04-14T16:22:23.965Z,44.40
2018-04-14T16:24:51.499Z,44.50
2018-04-14T16:27:19.072Z,44.50
2018-04-14T16:29:46.601Z,44.20
2018-04-14T16:32:14.949Z,43.90
2018-04-14T16:34:42.491Z,43.90
2018-04-14T16:37:10.067Z,44.00
2018-04-14T16:39:37.646Z,43.90
2018-04-14T16:42:05.171Z,44.10
2018-04-14T16:44:32.931Z,44.30
2018-04-14T16:47:00.463Z,44.40
2018-04-14T16:49:27.998Z,44.60
2018-04-14T16:51:56.338Z,44.50
2018-04-14T16:54:23.870Z,44.50
2018-04-14T16:56:51.448Z,44.70
2018-04-14T16:59:19.012Z,44.50
2018-04-14T17:01:46.558Z,44.40
2018-04-14T17:04:14.145Z,44.60
2018-04-14T17:06:41.678Z,44.90
2018-04-14T17:09:09.266Z,44.90
2018-04-14T17:11:36.804Z,45.20
2018-04-14T17:14:04.375Z,45.20
2018-04-14T17:16:31.910Z,45.00
2018-04-14T17:18:59.492Z,44.90
2018-04-14T17:21:27.030Z,45.10
2018-04-14T17:23:54.618Z,45.20
2018-04-14T17:26:22.150Z,45.10
2018-04-14T17:28:49.717Z,45.40
2018-04-14T17:31:17.307Z,45.60
2018-04-14T17:33:44.837Z,45.50
2018-04-14T17:36:12.372Z,45.50
2018-04-14T17:38:39.939Z,45.80
2018-04-14T17:41:07.512Z,45.60
2018-04-14T17:43:35.083Z,45.60
2018-04-14T17:46:02.627Z,45.80
2018-04-14T17:48:30.197Z,45.70
2018-04-14T17:50:57.758Z,45.70
2018-04-14T17:53:25.477Z,45.70
2018-04-14T17:55:53.779Z,46.60
2018-04-14T17:58:21.356Z,46.10
2018-04-14T18:00:48.937Z,46.20
2018-04-14T18:03:16.585Z,46.10
2018-04-14T18:05:44.157Z,45.40
2018-04-14T18:08:11.691Z,47.70
2018-04-14T18:10:39.252Z,38.00
2018-04-14T18:13:06.791Z,36.40
2018-04-14T18:15:35.126Z,37.10
2018-04-14T18:18:02.704Z,37.10
2018-04-14T18:20:30.239Z,37.10
2018-04-14T18:22:57.771Z,37.00
2018-04-14T18:25:25.341Z,36.70
2018-04-14T18:27:52.875Z,36.70
2018-04-14T18:30:20.449Z,36.50
2018-04-14T18:32:47.990Z,36.40
2018-04-14T18:35:16.326Z,36.50
2018-04-14T18:37:43.859Z,36.50
2018-04-14T18:40:11.434Z,36.40
2018-04-14T18:42:39.003Z,36.40
2018-04-14T18:45:06.549Z,36.50
2018-04-14T18:47:34.124Z,36.60
2018-04-14T18:50:01.660Z,36.70
2018-04-14T18:52:29.235Z,36.60
2018-04-14T18:54:56.765Z,36.60
2018-04-14T18:57:24.341Z,36.60
2018-04-14T18:59:51.900Z,36.70
2018-04-14T19:02:19.532Z,36.80
2018-04-14T19:04:47.814Z,37.40
2018-04-14T19:07:15.348Z,36.90
2018-04-14T19:09:43.691Z,36.90
2018-04-14T19:12:11.259Z,36.90
2018-04-14T19:14:38.791Z,36.90
2018-04-14T19:17:06.363Z,37.00
2018-04-14T19:19:33.904Z,37.00
2018-04-14T19:22:01.478Z,37.00
2018-04-14T19:24:29.041Z,37.00
2018-04-14T19:26:56.631Z,37.20
2018-04-14T19:29:24.167Z,37.20
2018-04-14T19:31:51.744Z,37.30
2018-04-14T19:34:19.288Z,37.50
2018-04-14T19:36:46.861Z,37.50
2018-04-14T19:39:14.417Z,37.60
2018-04-14T19:41:41.992Z,37.50
2018-04-14T19:44:09.572Z,37.60
2018-04-14T19:46:37.892Z,37.70
2018-04-14T19:49:05.466Z,37.70
2018-04-14T19:51:33.056Z,37.80
2018-04-14T19:54:00.599Z,37.80
2018-04-14T19:56:28.165Z,37.90
2018-04-14T19:58:55.751Z,38.00
2018-04-14T20:01:23.291Z,37.90
2018-04-14T20:03:50.848Z,38.10
2018-04-14T20:06:18.418Z,38.10
2018-04-14T20:08:45.979Z,38.20
2018-04-14T20:11:13.810Z,38.30
2018-04-14T20:13:41.377Z,38.30
2018-04-14T20:16:08.950Z,38.30
2018-04-14T20:18:36.528Z,38.40
2018-04-14T20:21:04.070Z,38.50
2018-04-14T20:23:31.631Z,38.50
2018-04-14T20:25:59.203Z,38.50
2018-04-14T20:28:26.764Z,38.60
2018-04-14T20:30:54.344Z,38.60
2018-04-14T20:33:22.650Z,38.80
2018-04-14T20:35:50.226Z,38.80
2018-04-14T20:38:17.763Z,38.80
2018-04-14T20:40:45.358Z,38.80
2018-04-14T20:43:12.895Z,38.80
2018-04-14T20:45:40.439Z,38.90
2018-04-14T20:48:08.788Z,39.00
2018-04-14T20:50:36.331Z,38.90
2018-04-14T20:53:03.919Z,39.00
2018-04-14T20:55:32.223Z,39.20
2018-04-14T20:57:59.769Z,39.00
2018-04-14T21:00:28.107Z,39.10
2018-04-14T21:02:55.646Z,39.10
2018-04-14T21:05:23.218Z,39.20
2018-04-14T21:07:50.755Z,39.20
2018-04-14T21:10:18.324Z,39.20
2018-04-14T21:12:45.871Z,39.20
2018-04-14T21:15:13.460Z,39.30
2018-04-14T21:17:41.055Z,39.40
2018-04-14T21:20:09.398Z,39.50
2018-04-14T21:22:36.970Z,39.50
2018-04-14T21:25:04.558Z,39.60
2018-04-14T21:27:32.168Z,40.40
2018-04-14T21:29:59.744Z,39.60
2018-04-14T21:32:27.311Z,39.70
2018-04-14T21:34:54.887Z,39.70
2018-04-14T21:37:22.455Z,39.70
2018-04-14T21:39:49.999Z,39.80
2018-04-14T21:42:17.574Z,39.80
2018-04-14T21:44:45.221Z,39.80
2018-04-14T21:47:12.805Z,40.00
2018-04-14T21:49:40.343Z,40.00
2018-04-14T21:52:07.874Z,40.10
2018-04-14T21:54:35.450Z,40.10
2018-04-14T21:57:02.984Z,40.20
2018-04-14T21:59:30.520Z,40.20
2018-04-14T22:01:58.855Z,40.20
2018-04-14T22:04:26.392Z,40.10
2018-04-14T22:06:53.968Z,40.20
2018-04-14T22:09:21.497Z,40.30
2018-04-14T22:11:49.055Z,40.30
2018-04-14T22:14:35.147Z,40.40
2018-04-14T22:17:02.690Z,40.40
2018-04-14T22:19:31.032Z,40.40
2018-04-14T22:21:58.567Z,40.30
2018-04-14T22:24:26.145Z,40.30
2018-04-14T22:26:53.717Z,40.30
2018-04-14T22:29:22.057Z,40.30
2018-04-14T22:31:49.626Z,40.30
2018-04-14T22:34:17.167Z,40.30
2018-04-14T22:36:44.741Z,40.30
2018-04-14T22:39:12.279Z,40.30
2018-04-14T22:41:39.851Z,40.30
2018-04-14T22:44:07.426Z,40.40
2018-04-14T22:46:34.965Z,40.40
2018-04-14T22:49:02.543Z,40.40
2018-04-14T22:51:30.102Z,40.50
2018-04-14T22:53:57.672Z,40.50
2018-04-14T22:56:25.240Z,40.60
2018-04-14T22:58:52.807Z,40.60
2018-04-14T23:01:20.383Z,40.70
2018-04-14T23:03:48.691Z,40.70
2018-04-14T23:06:17.041Z,40.70
2018-04-14T23:08:44.585Z,40.70
2018-04-14T23:11:12.149Z,40.80
2018-04-14T23:13:39.685Z,40.90
2018-04-14T23:16:07.264Z,40.90
2018-04-14T23:18:34.801Z,41.00
2018-04-14T23:21:02.341Z,41.10
2018-04-14T23:23:29.917Z,41.10
2018-04-14T23:25:57.496Z,41.20
2018-04-14T23:28:25.061Z,41.20
2018-04-14T23:30:52.589Z,41.20
2018-04-14T23:33:20.166Z,41.30
2018-04-14T23:35:47.707Z,41.40
2018-04-14T23:38:15.242Z,41.50
2018-04-14T23:40:43.573Z,41.50
2018-04-14T23:43:11.143Z,41.50
2018-04-14T23:45:38.679Z,41.60
2018-04-14T23:48:06.252Z,41.70
2018-04-14T23:50:33.821Z,41.70
2018-04-14T23:53:01.355Z,41.70
2018-04-14T23:55:28.924Z,41.70
2018-04-14T23:57:56.459Z,41.80
